Disclaimer

Please do not use the information listed here in-flight or in-navigation, as they are not provided to us by the airports but are provided by volunteers, so they might be outdated.

Search


Regions


Airport information page

Radio informations:
Common traffic adv. frequency (CTAF) - 123.2 MHz

Airport informations:
Latitude: 53° 34' 44.00" N
Longitude: 116° 27' 54.00" W
Elevation: 3041 feet - 927 meters
Operating hours: N/A
Operating agency: Municipal
Timezone: Second Sunday in March at 0200 to first Sunday in November at 0200 local time (Exception Arizona and that portion of Indiana in the Eastern Time Zone)
Fuel: Jet B, Wide cut turbine fuel, Without icing inhibitor.

100/130 octane gasoline, leaded, MIL-L-5572F (GREEN)

Runway information:
07/25 - 6000 x 100 feet< - >1829 x 30 meters

Recent METARs:
CYET 190100Z AUTO 00000KT 9SM OVC075 02/02 A3000 RMK SLP195
CYET 190100Z AUTO 00000KT 9SM OVC075 02/02 A3000 RMK SLP195
CYET 190200Z AUTO 27004KT 9SM BKN065 OVC075 01/01 A3001 RMK SLP199

Airport on the map: